sensor_id;sensor_type;location;lat;lon;timestamp;P1;durP1;ratioP1;P2;durP2;ratioP2
39050;SDS011;24805;55.852;37.644;2023-08-20T00:00:08;14.13;;;11.60;;
39050;SDS011;24805;55.852;37.644;2023-08-20T00:05:15;13.75;;;10.88;;
39050;SDS011;24805;55.852;37.644;2023-08-20T00:10:17;15.57;;;10.73;;
39050;SDS011;24805;55.852;37.644;2023-08-20T00:15:19;15.70;;;10.63;;
39050;SDS011;24805;55.852;37.644;2023-08-20T00:20:24;16.42;;;10.82;;
39050;SDS011;24805;55.852;37.644;2023-08-20T00:25:26;13.10;;;10.23;;
39050;SDS011;24805;55.852;37.644;2023-08-20T00:30:28;14.77;;;11.30;;
39050;SDS011;24805;55.852;37.644;2023-08-20T00:35:31;20.92;;;11.68;;
39050;SDS011;24805;55.852;37.644;2023-08-20T00:40:33;18.55;;;12.10;;
39050;SDS011;24805;55.852;37.644;2023-08-20T00:45:35;15.07;;;11.38;;
39050;SDS011;24805;55.852;37.644;2023-08-20T00:50:39;17.25;;;12.38;;
39050;SDS011;24805;55.852;37.644;2023-08-20T00:55:42;23.58;;;12.70;;
39050;SDS011;24805;55.852;37.644;2023-08-20T01:00:46;22.58;;;14.52;;
39050;SDS011;24805;55.852;37.644;2023-08-20T01:05:50;30.70;;;19.48;;
39050;SDS011;24805;55.852;37.644;2023-08-20T01:11:00;29.38;;;18.27;;
39050;SDS011;24805;55.852;37.644;2023-08-20T01:16:11;21.27;;;15.93;;
39050;SDS011;24805;55.852;37.644;2023-08-20T01:21:47;29.83;;;16.27;;
39050;SDS011;24805;55.852;37.644;2023-08-20T01:32:23;28.35;;;15.40;;
39050;SDS011;24805;55.852;37.644;2023-08-20T01:37:25;19.05;;;14.77;;
39050;SDS011;24805;55.852;37.644;2023-08-20T01:42:28;22.33;;;13.90;;
39050;SDS011;24805;55.852;37.644;2023-08-20T01:47:30;18.42;;;13.35;;
39050;SDS011;24805;55.852;37.644;2023-08-20T01:52:34;16.77;;;13.75;;
39050;SDS011;24805;55.852;37.644;2023-08-20T01:57:36;15.13;;;12.50;;
39050;SDS011;24805;55.852;37.644;2023-08-20T02:02:40;22.15;;;13.73;;
39050;SDS011;24805;55.852;37.644;2023-08-20T02:07:42;17.60;;;14.32;;
39050;SDS011;24805;55.852;37.644;2023-08-20T02:12:44;20.02;;;16.15;;
39050;SDS011;24805;55.852;37.644;2023-08-20T02:17:47;21.98;;;15.10;;
39050;SDS011;24805;55.852;37.644;2023-08-20T02:22:49;18.60;;;14.57;;
39050;SDS011;24805;55.852;37.644;2023-08-20T02:27:51;18.33;;;15.73;;
39050;SDS011;24805;55.852;37.644;2023-08-20T02:32:53;22.02;;;15.98;;
39050;SDS011;24805;55.852;37.644;2023-08-20T02:37:56;25.38;;;18.15;;
39050;SDS011;24805;55.852;37.644;2023-08-20T02:42:58;20.38;;;16.17;;
39050;SDS011;24805;55.852;37.644;2023-08-20T02:48:00;20.35;;;15.45;;
39050;SDS011;24805;55.852;37.644;2023-08-20T02:53:03;19.10;;;15.68;;
39050;SDS011;24805;55.852;37.644;2023-08-20T02:58:05;19.75;;;15.95;;
39050;SDS011;24805;55.852;37.644;2023-08-20T03:03:11;18.63;;;16.58;;
39050;SDS011;24805;55.852;37.644;2023-08-20T03:08:16;19.73;;;17.10;;
39050;SDS011;24805;55.852;37.644;2023-08-20T03:13:18;20.70;;;17.50;;
39050;SDS011;24805;55.852;37.644;2023-08-20T03:18:20;22.88;;;17.75;;
39050;SDS011;24805;55.852;37.644;2023-08-20T03:23:23;18.75;;;16.55;;
39050;SDS011;24805;55.852;37.644;2023-08-20T03:28:25;20.35;;;15.95;;
39050;SDS011;24805;55.852;37.644;2023-08-20T03:33:28;19.58;;;15.68;;
39050;SDS011;24805;55.852;37.644;2023-08-20T03:38:31;19.08;;;15.57;;
39050;SDS011;24805;55.852;37.644;2023-08-20T03:43:33;17.38;;;15.57;;
39050;SDS011;24805;55.852;37.644;2023-08-20T03:48:35;16.83;;;15.10;;
39050;SDS011;24805;55.852;37.644;2023-08-20T03:53:38;20.85;;;16.05;;
39050;SDS011;24805;55.852;37.644;2023-08-20T03:58:40;17.38;;;15.57;;
39050;SDS011;24805;55.852;37.644;2023-08-20T04:03:42;18.13;;;16.15;;
39050;SDS011;24805;55.852;37.644;2023-08-20T04:08:45;17.77;;;16.00;;
39050;SDS011;24805;55.852;37.644;2023-08-20T04:13:47;18.35;;;16.38;;
39050;SDS011;24805;55.852;37.644;2023-08-20T04:18:49;19.02;;;16.85;;
39050;SDS011;24805;55.852;37.644;2023-08-20T04:23:51;20.13;;;16.98;;
39050;SDS011;24805;55.852;37.644;2023-08-20T04:28:53;23.73;;;18.00;;
39050;SDS011;24805;55.852;37.644;2023-08-20T04:33:57;43.38;;;22.42;;
39050;SDS011;24805;55.852;37.644;2023-08-20T04:39:10;47.50;;;22.35;;
39050;SDS011;24805;55.852;37.644;2023-08-20T04:44:18;26.55;;;20.17;;
39050;SDS011;24805;55.852;37.644;2023-08-20T04:49:21;24.27;;;20.13;;
39050;SDS011;24805;55.852;37.644;2023-08-20T04:54:23;25.83;;;20.13;;
39050;SDS011;24805;55.852;37.644;2023-08-20T04:59:25;24.90;;;19.95;;
39050;SDS011;24805;55.852;37.644;2023-08-20T05:04:48;22.40;;;19.83;;
39050;SDS011;24805;55.852;37.644;2023-08-20T05:09:50;22.23;;;19.27;;
39050;SDS011;24805;55.852;37.644;2023-08-20T05:14:53;22.10;;;19.75;;
39050;SDS011;24805;55.852;37.644;2023-08-20T05:19:55;20.90;;;18.67;;
39050;SDS011;24805;55.852;37.644;2023-08-20T05:24:58;21.63;;;18.98;;
39050;SDS011;24805;55.852;37.644;2023-08-20T05:30:01;19.83;;;17.73;;
39050;SDS011;24805;55.852;37.644;2023-08-20T05:35:05;19.80;;;17.73;;
39050;SDS011;24805;55.852;37.644;2023-08-20T05:40:07;21.10;;;15.43;;
39050;SDS011;24805;55.852;37.644;2023-08-20T05:45:12;14.82;;;13.52;;
39050;SDS011;24805;55.852;37.644;2023-08-20T05:50:14;14.55;;;13.05;;
39050;SDS011;24805;55.852;37.644;2023-08-20T05:55:17;14.57;;;12.30;;
39050;SDS011;24805;55.852;37.644;2023-08-20T06:00:21;15.23;;;11.43;;
39050;SDS011;24805;55.852;37.644;2023-08-20T06:05:23;12.70;;;11.52;;
39050;SDS011;24805;55.852;37.644;2023-08-20T06:10:25;11.98;;;10.75;;
39050;SDS011;24805;55.852;37.644;2023-08-20T06:15:28;11.73;;;10.57;;
39050;SDS011;24805;55.852;37.644;2023-08-20T06:20:30;10.95;;;9.15;;
39050;SDS011;24805;55.852;37.644;2023-08-20T06:25:32;11.50;;;9.50;;
39050;SDS011;24805;55.852;37.644;2023-08-20T06:30:34;9.95;;;8.95;;
39050;SDS011;24805;55.852;37.644;2023-08-20T06:35:37;10.23;;;9.00;;
39050;SDS011;24805;55.852;37.644;2023-08-20T06:40:40;10.93;;;8.75;;
39050;SDS011;24805;55.852;37.644;2023-08-20T06:45:42;6.50;;;5.82;;
39050;SDS011;24805;55.852;37.644;2023-08-20T06:50:44;7.68;;;6.13;;
39050;SDS011;24805;55.852;37.644;2023-08-20T06:55:46;8.35;;;5.93;;
39050;SDS011;24805;55.852;37.644;2023-08-20T07:00:49;8.27;;;4.88;;
39050;SDS011;24805;55.852;37.644;2023-08-20T07:05:51;5.72;;;3.90;;
39050;SDS011;24805;55.852;37.644;2023-08-20T07:10:53;5.32;;;4.80;;
39050;SDS011;24805;55.852;37.644;2023-08-20T07:15:55;5.32;;;4.00;;
39050;SDS011;24805;55.852;37.644;2023-08-20T07:20:58;4.22;;;3.83;;
39050;SDS011;24805;55.852;37.644;2023-08-20T07:26:03;4.07;;;3.33;;
39050;SDS011;24805;55.852;37.644;2023-08-20T07:31:07;5.28;;;3.13;;
39050;SDS011;24805;55.852;37.644;2023-08-20T07:36:09;3.42;;;3.00;;
39050;SDS011;24805;55.852;37.644;2023-08-20T07:41:12;5.07;;;2.97;;
39050;SDS011;24805;55.852;37.644;2023-08-20T07:46:14;5.25;;;3.53;;
39050;SDS011;24805;55.852;37.644;2023-08-20T07:51:17;4.10;;;3.50;;
39050;SDS011;24805;55.852;37.644;2023-08-20T07:56:19;5.13;;;3.10;;
39050;SDS011;24805;55.852;37.644;2023-08-20T08:01:21;4.43;;;3.55;;
39050;SDS011;24805;55.852;37.644;2023-08-20T08:06:24;5.40;;;3.75;;
39050;SDS011;24805;55.852;37.644;2023-08-20T08:11:26;5.03;;;3.30;;
39050;SDS011;24805;55.852;37.644;2023-08-20T08:16:29;3.95;;;3.40;;
39050;SDS011;24805;55.852;37.644;2023-08-20T08:21:31;6.75;;;3.53;;
39050;SDS011;24805;55.852;37.644;2023-08-20T08:26:34;4.57;;;3.33;;
39050;SDS011;24805;55.852;37.644;2023-08-20T08:31:37;5.30;;;3.45;;
39050;SDS011;24805;55.852;37.644;2023-08-20T08:36:40;3.88;;;3.42;;
39050;SDS011;24805;55.852;37.644;2023-08-20T08:41:42;5.18;;;3.40;;
39050;SDS011;24805;55.852;37.644;2023-08-20T08:46:45;5.22;;;2.97;;
39050;SDS011;24805;55.852;37.644;2023-08-20T08:51:51;4.90;;;3.22;;
39050;SDS011;24805;55.852;37.644;2023-08-20T08:56:55;7.03;;;2.78;;
39050;SDS011;24805;55.852;37.644;2023-08-20T09:01:58;4.97;;;2.10;;
39050;SDS011;24805;55.852;37.644;2023-08-20T09:07:01;2.92;;;2.33;;
39050;SDS011;24805;55.852;37.644;2023-08-20T09:12:12;4.50;;;2.15;;
39050;SDS011;24805;55.852;37.644;2023-08-20T09:17:18;4.13;;;2.25;;
39050;SDS011;24805;55.852;37.644;2023-08-20T09:22:26;3.45;;;2.10;;
39050;SDS011;24805;55.852;37.644;2023-08-20T09:27:28;3.10;;;2.03;;
39050;SDS011;24805;55.852;37.644;2023-08-20T09:32:32;4.10;;;2.30;;
39050;SDS011;24805;55.852;37.644;2023-08-20T09:37:34;3.83;;;2.30;;
39050;SDS011;24805;55.852;37.644;2023-08-20T09:42:36;3.97;;;2.47;;
39050;SDS011;24805;55.852;37.644;2023-08-20T09:47:39;2.65;;;2.13;;
39050;SDS011;24805;55.852;37.644;2023-08-20T09:53:27;4.63;;;2.45;;
39050;SDS011;24805;55.852;37.644;2023-08-20T09:58:14;2.88;;;1.85;;
39050;SDS011;24805;55.852;37.644;2023-08-20T10:03:18;3.58;;;2.10;;
39050;SDS011;24805;55.852;37.644;2023-08-20T10:08:23;5.47;;;2.10;;
39050;SDS011;24805;55.852;37.644;2023-08-20T10:13:27;3.20;;;2.10;;
39050;SDS011;24805;55.852;37.644;2023-08-20T10:18:29;4.32;;;2.08;;
39050;SDS011;24805;55.852;37.644;2023-08-20T10:23:32;2.90;;;2.17;;
39050;SDS011;24805;55.852;37.644;2023-08-20T10:28:35;3.85;;;2.28;;
39050;SDS011;24805;55.852;37.644;2023-08-20T10:33:48;16.23;;;5.90;;
39050;SDS011;24805;55.852;37.644;2023-08-20T10:38:58;7.18;;;2.70;;
39050;SDS011;24805;55.852;37.644;2023-08-20T10:44:06;5.18;;;2.70;;
39050;SDS011;24805;55.852;37.644;2023-08-20T10:49:08;6.32;;;3.13;;
39050;SDS011;24805;55.852;37.644;2023-08-20T10:54:12;6.60;;;3.35;;
39050;SDS011;24805;55.852;37.644;2023-08-20T10:59:19;3.63;;;3.00;;
39050;SDS011;24805;55.852;37.644;2023-08-20T11:04:28;4.40;;;3.10;;
39050;SDS011;24805;55.852;37.644;2023-08-20T11:09:34;5.85;;;3.25;;
39050;SDS011;24805;55.852;37.644;2023-08-20T11:14:38;4.97;;;3.42;;
39050;SDS011;24805;55.852;37.644;2023-08-20T11:19:40;5.70;;;3.40;;
39050;SDS011;24805;55.852;37.644;2023-08-20T11:24:46;5.07;;;3.40;;
39050;SDS011;24805;55.852;37.644;2023-08-20T11:29:48;4.00;;;3.13;;
39050;SDS011;24805;55.852;37.644;2023-08-20T11:34:51;7.00;;;3.17;;
39050;SDS011;24805;55.852;37.644;2023-08-20T11:39:54;4.63;;;2.80;;
39050;SDS011;24805;55.852;37.644;2023-08-20T11:44:56;3.20;;;2.90;;
39050;SDS011;24805;55.852;37.644;2023-08-20T11:50:03;4.95;;;3.30;;
39050;SDS011;24805;55.852;37.644;2023-08-20T11:55:08;3.55;;;3.00;;
39050;SDS011;24805;55.852;37.644;2023-08-20T12:00:23;7.97;;;3.97;;
39050;SDS011;24805;55.852;37.644;2023-08-20T12:05:27;6.28;;;4.53;;
39050;SDS011;24805;55.852;37.644;2023-08-20T12:10:30;7.63;;;5.47;;
39050;SDS011;24805;55.852;37.644;2023-08-20T12:15:34;6.38;;;4.72;;
39050;SDS011;24805;55.852;37.644;2023-08-20T12:20:36;7.85;;;5.28;;
39050;SDS011;24805;55.852;37.644;2023-08-20T12:25:39;6.55;;;5.10;;
39050;SDS011;24805;55.852;37.644;2023-08-20T12:30:41;14.45;;;5.80;;
39050;SDS011;24805;55.852;37.644;2023-08-20T12:35:43;6.88;;;5.22;;
39050;SDS011;24805;55.852;37.644;2023-08-20T12:40:45;8.65;;;3.83;;
39050;SDS011;24805;55.852;37.644;2023-08-20T12:45:48;7.22;;;3.78;;
39050;SDS011;24805;55.852;37.644;2023-08-20T12:50:51;8.65;;;4.15;;
39050;SDS011;24805;55.852;37.644;2023-08-20T12:55:54;7.43;;;5.28;;
39050;SDS011;24805;55.852;37.644;2023-08-20T13:00:56;9.65;;;6.38;;
39050;SDS011;24805;55.852;37.644;2023-08-20T13:05:58;12.13;;;6.75;;
39050;SDS011;24805;55.852;37.644;2023-08-20T13:11:01;10.10;;;7.22;;
39050;SDS011;24805;55.852;37.644;2023-08-20T13:16:05;9.43;;;7.45;;
39050;SDS011;24805;55.852;37.644;2023-08-20T13:21:08;10.10;;;7.68;;
39050;SDS011;24805;55.852;37.644;2023-08-20T13:26:11;11.02;;;8.68;;
39050;SDS011;24805;55.852;37.644;2023-08-20T13:31:13;12.43;;;9.15;;
39050;SDS011;24805;55.852;37.644;2023-08-20T13:36:15;12.05;;;10.23;;
39050;SDS011;24805;55.852;37.644;2023-08-20T13:41:18;12.75;;;10.93;;
39050;SDS011;24805;55.852;37.644;2023-08-20T13:46:20;10.85;;;9.80;;
39050;SDS011;24805;55.852;37.644;2023-08-20T13:51:22;14.90;;;10.30;;
39050;SDS011;24805;55.852;37.644;2023-08-20T13:56:25;14.77;;;10.50;;
39050;SDS011;24805;55.852;37.644;2023-08-20T14:01:27;11.07;;;9.70;;
39050;SDS011;24805;55.852;37.644;2023-08-20T14:06:29;11.30;;;9.80;;
39050;SDS011;24805;55.852;37.644;2023-08-20T14:11:32;12.65;;;9.93;;
39050;SDS011;24805;55.852;37.644;2023-08-20T14:16:36;11.98;;;10.57;;
39050;SDS011;24805;55.852;37.644;2023-08-20T14:21:39;12.13;;;10.10;;
39050;SDS011;24805;55.852;37.644;2023-08-20T14:26:41;11.60;;;10.48;;
39050;SDS011;24805;55.852;37.644;2023-08-20T14:31:44;12.45;;;11.15;;
39050;SDS011;24805;55.852;37.644;2023-08-20T14:36:46;13.95;;;11.85;;
39050;SDS011;24805;55.852;37.644;2023-08-20T14:41:48;13.77;;;12.32;;
39050;SDS011;24805;55.852;37.644;2023-08-20T14:46:51;14.98;;;12.90;;
39050;SDS011;24805;55.852;37.644;2023-08-20T14:51:54;15.10;;;13.23;;
39050;SDS011;24805;55.852;37.644;2023-08-20T14:57:16;18.13;;;14.98;;
39050;SDS011;24805;55.852;37.644;2023-08-20T15:02:19;20.42;;;14.30;;
39050;SDS011;24805;55.852;37.644;2023-08-20T15:07:21;9.68;;;8.77;;
39050;SDS011;24805;55.852;37.644;2023-08-20T15:12:23;9.15;;;6.78;;
39050;SDS011;24805;55.852;37.644;2023-08-20T15:17:25;7.53;;;6.80;;
39050;SDS011;24805;55.852;37.644;2023-08-20T15:22:28;8.32;;;7.05;;
39050;SDS011;24805;55.852;37.644;2023-08-20T15:27:31;10.32;;;7.15;;
39050;SDS011;24805;55.852;37.644;2023-08-20T15:32:34;9.18;;;7.38;;
39050;SDS011;24805;55.852;37.644;2023-08-20T15:37:38;9.10;;;7.82;;
39050;SDS011;24805;55.852;37.644;2023-08-20T15:42:41;7.45;;;6.78;;
39050;SDS011;24805;55.852;37.644;2023-08-20T15:47:43;8.15;;;7.35;;
39050;SDS011;24805;55.852;37.644;2023-08-20T15:52:45;8.73;;;7.30;;
39050;SDS011;24805;55.852;37.644;2023-08-20T15:57:49;8.55;;;7.22;;
39050;SDS011;24805;55.852;37.644;2023-08-20T16:02:52;9.52;;;7.18;;
39050;SDS011;24805;55.852;37.644;2023-08-20T16:07:54;11.07;;;8.00;;
39050;SDS011;24805;55.852;37.644;2023-08-20T16:12:57;6.88;;;6.18;;
39050;SDS011;24805;55.852;37.644;2023-08-20T16:17:59;12.63;;;6.68;;
39050;SDS011;24805;55.852;37.644;2023-08-20T16:23:01;7.57;;;5.18;;
39050;SDS011;24805;55.852;37.644;2023-08-20T16:28:03;5.32;;;4.30;;
39050;SDS011;24805;55.852;37.644;2023-08-20T16:33:06;5.43;;;4.25;;
39050;SDS011;24805;55.852;37.644;2023-08-20T16:38:09;6.70;;;4.53;;
39050;SDS011;24805;55.852;37.644;2023-08-20T16:43:12;6.35;;;4.80;;
39050;SDS011;24805;55.852;37.644;2023-08-20T16:48:14;7.95;;;5.18;;
39050;SDS011;24805;55.852;37.644;2023-08-20T16:53:17;5.90;;;4.55;;
39050;SDS011;24805;55.852;37.644;2023-08-20T16:58:20;6.03;;;3.67;;
39050;SDS011;24805;55.852;37.644;2023-08-20T17:03:24;4.25;;;3.85;;
39050;SDS011;24805;55.852;37.644;2023-08-20T17:08:27;6.68;;;4.25;;
39050;SDS011;24805;55.852;37.644;2023-08-20T17:13:29;4.10;;;3.70;;
39050;SDS011;24805;55.852;37.644;2023-08-20T17:18:32;4.05;;;3.00;;
39050;SDS011;24805;55.852;37.644;2023-08-20T17:23:35;3.47;;;2.60;;
39050;SDS011;24805;55.852;37.644;2023-08-20T17:28:37;3.35;;;2.60;;
39050;SDS011;24805;55.852;37.644;2023-08-20T17:33:39;3.47;;;2.55;;
39050;SDS011;24805;55.852;37.644;2023-08-20T17:38:47;4.63;;;2.53;;
39050;SDS011;24805;55.852;37.644;2023-08-20T17:43:49;5.68;;;2.10;;
39050;SDS011;24805;55.852;37.644;2023-08-20T17:48:51;6.93;;;2.20;;
39050;SDS011;24805;55.852;37.644;2023-08-20T17:53:54;2.53;;;1.67;;
39050;SDS011;24805;55.852;37.644;2023-08-20T17:58:56;4.13;;;1.73;;
39050;SDS011;24805;55.852;37.644;2023-08-20T18:03:59;3.95;;;2.10;;
39050;SDS011;24805;55.852;37.644;2023-08-20T18:09:01;1.92;;;1.70;;
39050;SDS011;24805;55.852;37.644;2023-08-20T18:14:03;7.65;;;2.08;;
39050;SDS011;24805;55.852;37.644;2023-08-20T18:19:05;2.50;;;1.50;;
39050;SDS011;24805;55.852;37.644;2023-08-20T18:24:07;4.45;;;1.77;;
39050;SDS011;24805;55.852;37.644;2023-08-20T18:29:10;4.93;;;1.85;;
39050;SDS011;24805;55.852;37.644;2023-08-20T18:34:12;3.80;;;2.20;;
39050;SDS011;24805;55.852;37.644;2023-08-20T18:39:14;6.03;;;3.53;;
39050;SDS011;24805;55.852;37.644;2023-08-20T18:44:16;5.90;;;3.05;;
39050;SDS011;24805;55.852;37.644;2023-08-20T18:49:18;7.22;;;6.00;;
39050;SDS011;24805;55.852;37.644;2023-08-20T18:54:21;2.78;;;2.30;;
39050;SDS011;24805;55.852;37.644;2023-08-20T18:59:23;4.10;;;2.67;;
39050;SDS011;24805;55.852;37.644;2023-08-20T19:04:26;2.92;;;2.05;;
39050;SDS011;24805;55.852;37.644;2023-08-20T19:09:28;4.00;;;1.75;;
39050;SDS011;24805;55.852;37.644;2023-08-20T19:14:30;8.63;;;5.78;;
39050;SDS011;24805;55.852;37.644;2023-08-20T19:19:32;2.60;;;2.08;;
39050;SDS011;24805;55.852;37.644;2023-08-20T19:24:35;2.78;;;1.92;;
39050;SDS011;24805;55.852;37.644;2023-08-20T19:29:37;3.55;;;3.03;;
39050;SDS011;24805;55.852;37.644;2023-08-20T19:34:39;3.85;;;1.75;;
39050;SDS011;24805;55.852;37.644;2023-08-20T19:39:42;3.60;;;2.55;;
39050;SDS011;24805;55.852;37.644;2023-08-20T19:44:47;6.60;;;2.72;;
39050;SDS011;24805;55.852;37.644;2023-08-20T19:49:49;3.28;;;2.40;;
39050;SDS011;24805;55.852;37.644;2023-08-20T19:54:51;3.22;;;2.38;;
39050;SDS011;24805;55.852;37.644;2023-08-20T19:59:53;2.22;;;1.70;;
39050;SDS011;24805;55.852;37.644;2023-08-20T20:04:55;2.30;;;1.80;;
39050;SDS011;24805;55.852;37.644;2023-08-20T20:09:58;3.60;;;1.80;;
39050;SDS011;24805;55.852;37.644;2023-08-20T20:15:00;3.55;;;1.52;;
39050;SDS011;24805;55.852;37.644;2023-08-20T20:20:05;3.15;;;1.77;;
39050;SDS011;24805;55.852;37.644;2023-08-20T20:25:14;3.58;;;1.58;;
39050;SDS011;24805;55.852;37.644;2023-08-20T20:30:16;2.03;;;1.65;;
39050;SDS011;24805;55.852;37.644;2023-08-20T20:35:19;2.70;;;1.75;;
39050;SDS011;24805;55.852;37.644;2023-08-20T20:40:22;2.67;;;1.75;;
39050;SDS011;24805;55.852;37.644;2023-08-20T20:45:24;2.75;;;1.90;;
39050;SDS011;24805;55.852;37.644;2023-08-20T20:50:26;2.25;;;1.67;;
39050;SDS011;24805;55.852;37.644;2023-08-20T20:55:30;1.70;;;1.60;;
39050;SDS011;24805;55.852;37.644;2023-08-20T21:00:32;4.95;;;1.65;;
39050;SDS011;24805;55.852;37.644;2023-08-20T21:05:39;2.20;;;1.70;;
39050;SDS011;24805;55.852;37.644;2023-08-20T21:10:42;3.30;;;1.30;;
39050;SDS011;24805;55.852;37.644;2023-08-20T21:15:45;2.22;;;1.38;;
39050;SDS011;24805;55.852;37.644;2023-08-20T21:20:47;1.77;;;0.98;;
39050;SDS011;24805;55.852;37.644;2023-08-20T21:25:49;1.65;;;1.02;;
39050;SDS011;24805;55.852;37.644;2023-08-20T21:30:51;1.67;;;0.80;;
39050;SDS011;24805;55.852;37.644;2023-08-20T21:35:53;2.67;;;0.88;;
39050;SDS011;24805;55.852;37.644;2023-08-20T21:40:55;1.17;;;0.70;;
39050;SDS011;24805;55.852;37.644;2023-08-20T21:45:57;1.30;;;0.63;;
39050;SDS011;24805;55.852;37.644;2023-08-20T21:51:00;2.13;;;0.63;;
39050;SDS011;24805;55.852;37.644;2023-08-20T21:56:03;4.22;;;0.80;;
39050;SDS011;24805;55.852;37.644;2023-08-20T22:01:06;1.40;;;0.50;;
39050;SDS011;24805;55.852;37.644;2023-08-20T22:06:09;1.10;;;0.50;;
39050;SDS011;24805;55.852;37.644;2023-08-20T22:11:11;1.25;;;0.50;;
39050;SDS011;24805;55.852;37.644;2023-08-20T22:16:13;0.80;;;0.40;;
39050;SDS011;24805;55.852;37.644;2023-08-20T22:21:16;1.88;;;0.50;;
39050;SDS011;24805;55.852;37.644;2023-08-20T22:26:19;0.98;;;0.60;;
39050;SDS011;24805;55.852;37.644;2023-08-20T22:31:21;2.08;;;0.73;;
39050;SDS011;24805;55.852;37.644;2023-08-20T22:36:23;0.80;;;0.50;;
39050;SDS011;24805;55.852;37.644;2023-08-20T22:41:25;2.05;;;0.50;;
39050;SDS011;24805;55.852;37.644;2023-08-20T22:46:27;1.58;;;0.57;;
39050;SDS011;24805;55.852;37.644;2023-08-20T22:51:30;1.52;;;0.70;;
39050;SDS011;24805;55.852;37.644;2023-08-20T22:56:32;1.58;;;1.05;;
39050;SDS011;24805;55.852;37.644;2023-08-20T23:01:35;3.28;;;1.00;;
39050;SDS011;24805;55.852;37.644;2023-08-20T23:06:38;3.08;;;1.67;;
39050;SDS011;24805;55.852;37.644;2023-08-20T23:11:41;1.83;;;1.60;;
39050;SDS011;24805;55.852;37.644;2023-08-20T23:16:44;3.72;;;2.47;;
39050;SDS011;24805;55.852;37.644;2023-08-20T23:21:46;5.50;;;2.78;;
39050;SDS011;24805;55.852;37.644;2023-08-20T23:26:48;3.55;;;3.03;;
39050;SDS011;24805;55.852;37.644;2023-08-20T23:31:50;2.92;;;2.63;;
39050;SDS011;24805;55.852;37.644;2023-08-20T23:36:52;4.40;;;3.08;;
39050;SDS011;24805;55.852;37.644;2023-08-20T23:41:54;4.22;;;2.97;;
39050;SDS011;24805;55.852;37.644;2023-08-20T23:46:57;4.07;;;3.45;;
39050;SDS011;24805;55.852;37.644;2023-08-20T23:51:59;3.60;;;3.30;;
39050;SDS011;24805;55.852;37.644;2023-08-20T23:57:01;3.42;;;3.13;;
